Data for 02/25/2014

Time Sea-Level Adjusted Pressure Absolute Pressure Temperature Relative Humidity Dew Point   
(mb) (inHg) (mb) (inHg) (C) (F) (%) (C) (F)
00:05 1018 30.06 847 25.01 -12.1 10.2 81 -14.8 5.4
00:10 1018 30.06 847 25.01 -12.1 10.2 82 -14.6 5.8
00:15 1018 30.06 847 25.01 -12.2 10 82 -14.7 5.5
00:20 1018 30.06 847 25.01 -12.5 9.6 84 -14.7 5.5
00:25 1018 30.06 848 25.04 -12.3 9.8 84 -14.6 5.8
00:30 1018 30.06 848 25.04 -12.3 9.9 83 -14.6 5.8
00:35 1018 30.06 848 25.04 -12.6 9.3 85 -14.6 5.7
00:40 1019 30.09 848 25.04 -12.6 9.3 84 -14.8 5.4
00:45 1019 30.09 848 25.04 -12.7 9.2 85 -14.7 5.6
00:50 1019 30.09 848 25.04 -12.5 9.4 85 -14.6 5.8
00:55 1019 30.09 848 25.04 -12.5 9.5 84 -14.7 5.6
01:00 1019 30.09 848 25.04 -12.7 9.2 84 -14.8 5.4
01:05 1019 30.09 848 25.04 -12.7 9.1 85 -14.8 5.4
01:10 1019 30.09 848 25.04 -12.7 9.2 85 -14.7 5.5
01:15 1019 30.09 848 25.04 -12.6 9.3 85 -14.7 5.5
01:20 1019 30.09 848 25.04 -12.7 9.2 85 -14.7 5.5
01:25 1019 30.09 848 25.04 -12.7 9.1 85 -14.7 5.5
01:30 1019 30.09 848 25.04 -12.6 9.3 85 -14.6 5.7
01:35 1019 30.09 848 25.04 -12.4 9.6 84 -14.7 5.6
01:40 1019 30.09 848 25.04 -12.6 9.4 84 -14.7 5.6
01:45 1019 30.09 848 25.04 -12.6 9.4 85 -14.6 5.8
01:50 1019 30.09 848 25.04 -12.5 9.4 85 -14.5 5.9
01:55 1019 30.09 848 25.04 -12.5 9.5 86 -14.3 6.2
02:00 1019 30.09 848 25.04 -12.4 9.6 86 -14.4 6.1
02:05 1019 30.09 848 25.04 -12.5 9.6 85 -14.5 6
02:10 1019 30.09 848 25.04 -12.5 9.5 87 -14.3 6.2
02:15 1019 30.09 849 25.07 -12.4 9.6 86 -14.3 6.3
02:20 1019 30.09 849 25.07 -12.3 9.8 85 -14.4 6.1
02:25 1020 30.12 849 25.07 -12.3 9.9 86 -14.2 6.5
02:30 1020 30.12 849 25.07 -12.2 10.1 85 -14.1 6.5
02:35 1020 30.12 849 25.07 -12.1 10.2 86 -14.1 6.7
02:40 1020 30.12 849 25.07 -12 10.3 85 -14 6.8
02:45 1020 30.12 849 25.07 -12 10.3 85 -14 6.8
02:50 1020 30.12 849 25.07 -12.2 10.1 85 -14.2 6.4
02:55 1020 30.12 849 25.07 -12.5 9.6 86 -14.3 6.3
03:00 1020 30.12 849 25.07 -12.4 9.7 87 -14.2 6.4
03:05 1020 30.12 849 25.07 -12.3 9.9 85 -14.3 6.3
03:10 1020 30.12 849 25.07 -12.2 10 85 -14.2 6.4
03:15 1020 30.12 850 25.1 -12.4 9.7 86 -14.3 6.2
03:20 1021 30.15 850 25.1 -12.5 9.5 87 -14.3 6.3
03:25 1021 30.15 850 25.1 -12.3 9.8 86 -14.2 6.4
03:30 1021 30.15 850 25.1 -12.3 9.9 86 -14.2 6.4
03:35 1021 30.15 850 25.1 -12.3 9.8 86 -14.2 6.4
03:40 1021 30.15 850 25.1 -12.4 9.7 86 -14.3 6.2
03:45 1021 30.15 850 25.1 -12.4 9.7 85 -14.4 6.1
03:50 1021 30.15 850 25.1 -12.4 9.7 85 -14.4 6.1
03:55 1021 30.15 850 25.1 -12.4 9.8 86 -14.3 6.3
04:00 1021 30.15 850 25.1 -12.4 9.7 85 -14.4 6.2
04:05 1021 30.15 851 25.13 -12.4 9.7 85 -14.4 6
04:10 1021 30.15 851 25.13 -12.4 9.8 85 -14.4 6.1
04:15 1021 30.15 851 25.13 -12.4 9.8 85 -14.4 6.1
04:20 1021 30.15 851 25.13 -12.4 9.7 85 -14.5 5.9
04:25 1022 30.18 851 25.13 -12.5 9.5 86 -14.5 6
04:30 1022 30.18 851 25.13 -12.6 9.3 85 -14.6 5.7
04:35 1022 30.18 851 25.13 -12.8 9.1 86 -14.6 5.8
04:40 1022 30.18 851 25.13 -12.7 9.2 85 -14.7 5.6
04:45 1022 30.18 851 25.13 -12.6 9.3 86 -14.5 5.9
04:50 1022 30.18 851 25.13 -12.6 9.3 85 -14.6 5.7
04:55 1022 30.18 851 25.13 -12.9 8.9 87 -14.6 5.7
05:00 1022 30.18 851 25.13 -12.9 8.8 87 -14.7 5.6
05:05 1022 30.18 851 25.13 -12.9 8.8 87 -14.7 5.6
05:10 1022 30.18 851 25.13 -12.9 8.8 87 -14.6 5.6
05:15 1022 30.18 851 25.13 -12.9 8.8 87 -14.7 5.6
05:20 1022 30.18 851 25.13 -12.9 8.7 86 -14.8 5.4
05:25 1022 30.18 851 25.13 -13 8.6 87 -14.7 5.5
05:30 1022 30.18 851 25.13 -13 8.7 87 -14.7 5.5
05:35 1022 30.18 851 25.13 -13 8.7 87 -14.7 5.5
05:40 1022 30.18 851 25.13 -13 8.7 87 -14.7 5.5
05:45 1022 30.18 851 25.13 -13 8.6 87 -14.7 5.5
05:50 1022 30.18 851 25.13 -12.9 8.8 87 -14.6 5.7
05:55 1022 30.18 852 25.16 -12.9 8.9 87 -14.5 5.8
06:00 1023 30.21 852 25.16 -12.7 9.1 87 -14.4 6
06:05 1023 30.21 852 25.16 -12.6 9.3 87 -14.4 6.1
06:10 1023 30.21 852 25.16 -12.6 9.4 87 -14.3 6.3
06:15 1023 30.21 852 25.16 -12.5 9.6 85 -14.5 5.9
06:20 1023 30.21 852 25.16 -12.5 9.6 86 -14.3 6.2
06:25 1023 30.21 852 25.16 -12.5 9.4 86 -14.4 6.1
06:30 1023 30.21 852 25.16 -12.7 9.2 86 -14.5 5.9
06:35 1023 30.21 852 25.16 -12.6 9.2 86 -14.5 5.9
06:40 1023 30.21 852 25.16 -12.6 9.3 86 -14.4 6
06:45 1023 30.21 852 25.16 -12.5 9.5 85 -14.5 6
06:50 1023 30.21 852 25.16 -12.5 9.6 85 -14.5 6
06:55 1023 30.21 852 25.16 -12.6 9.3 86 -14.4 6.1
07:00 1023 30.21 852 25.16 -12.6 9.4 87 -14.4 6.2
07:05 1023 30.21 853 25.19 -12.5 9.5 87 -14.3 6.3
07:10 1023 30.21 853 25.19 -12.5 9.5 86 -14.3 6.2
07:15 1023 30.21 853 25.19 -12.5 9.5 86 -14.3 6.2
07:20 1023 30.21 853 25.19 -12.5 9.4 86 -14.5 5.9
07:25 1024 30.24 853 25.19 -12.5 9.5 85 -14.6 5.8
07:30 1024 30.24 853 25.19 -12.6 9.4 85 -14.6 5.7
07:35 1024 30.24 853 25.19 -12.6 9.4 85 -14.6 5.7
07:40 1024 30.24 853 25.19 -12.6 9.3 85 -14.6 5.8
07:45 1024 30.24 853 25.19 -12.6 9.3 85 -14.6 5.8
07:50 1024 30.24 853 25.19 -12.6 9.4 85 -14.6 5.7
07:55 1024 30.24 853 25.19 -12.6 9.3 85 -14.6 5.8
08:00 1024 30.24 853 25.19 -12.6 9.4 85 -14.6 5.6
08:05 1024 30.24 853 25.19 -12.6 9.4 85 -14.6 5.7
08:10 1024 30.24 853 25.19 -12.6 9.4 85 -14.6 5.7
08:15 1024 30.24 853 25.19 -12.6 9.4 84 -14.7 5.5
08:20 1024 30.24 853 25.19 -12.6 9.4 84 -14.7 5.6
08:25 1024 30.24 853 25.19 -12.5 9.5 85 -14.5 5.8
08:30 1024 30.24 853 25.19 -12.5 9.5 85 -14.6 5.8
08:35 1024 30.24 853 25.19 -12.5 9.6 84 -14.6 5.7
08:40 1024 30.24 853 25.19 -12.5 9.6 83 -14.8 5.4
08:45 1024 30.24 853 25.19 -12.4 9.7 83 -14.7 5.5
08:50 1024 30.24 853 25.19 -12.3 9.9 82 -14.7 5.5
08:55 1024 30.24 853 25.19 -12.3 9.9 83 -14.7 5.6
09:00 1024 30.24 854 25.22 -12.3 9.9 82 -14.7 5.6
09:05 1025 30.27 854 25.22 -12.1 10.2 83 -14.5 5.9
09:10 1025 30.27 854 25.22 -12.1 10.3 82 -14.5 6
09:15 1025 30.27 854 25.22 -12 10.5 81 -14.6 5.7
09:20 1025 30.27 854 25.22 -11.9 10.7 81 -14.5 6
09:25 1025 30.27 854 25.22 -11.8 10.8 81 -14.4 6.1
09:30 1025 30.27 854 25.22 -11.9 10.6 81 -14.5 5.9
09:35 1025 30.27 854 25.22 -11.8 10.7 82 -14.3 6.3
09:40 1025 30.27 854 25.22 -11.7 10.9 81 -14.4 6.1
09:45 1025 30.27 854 25.22 -11.6 11.1 80 -14.4 6
09:50 1025 30.27 854 25.22 -11.7 11 79 -14.5 5.8
09:55 1025 30.27 854 25.22 -11.7 10.9 78 -14.8 5.3
10:00 1025 30.27 854 25.22 -11.9 10.6 80 -14.7 5.5
10:05 1025 30.27 854 25.22 -11.6 11 79 -14.5 5.8
10:10 1025 30.27 855 25.25 -11.5 11.2 79 -14.5 5.9
10:15 1025 30.27 855 25.25 -11.4 11.4 78 -14.5 5.8
10:20 1026 30.3 855 25.25 -11.1 12.1 78 -14.1 6.5
10:25 1026 30.3 855 25.25 -10.8 12.6 76 -14.3 6.2
10:30 1026 30.3 855 25.25 -11.3 11.8 77 -14.6 5.8
10:35 1026 30.3 855 25.25 -11.5 11.3 76 -14.9 5.2
10:40 1026 30.3 855 25.25 -11.2 11.8 75 -14.7 5.5
10:45 1026 30.3 855 25.25 -11.4 11.4 77 -14.7 5.6
10:50 1026 30.3 855 25.25 -11.5 11.4 78 -14.5 5.8
10:55 1026 30.3 855 25.25 -10.8 12.6 76 -14.3 6.3
11:00 1026 30.3 855 25.25 -10.3 13.5 75 -13.9 6.9
11:05 1026 30.3 855 25.25 -10.1 13.9 73 -14 6.8
11:10 1026 30.3 855 25.25 -10.1 13.8 73 -14.1 6.6
11:15 1026 30.3 855 25.25 -10.7 12.8 74 -14.5 5.9
11:20 1026 30.3 855 25.25 -10.9 12.4 74 -14.6 5.6
11:25 1026 30.3 855 25.25 -10.8 12.5 73 -14.8 5.3
11:30 1026 30.3 855 25.25 -10.6 13 67 -15.6 3.9
11:35 1026 30.3 855 25.25 -11.2 11.9 69 -15.7 3.7
11:40 1026 30.3 856 25.28 -11 12.3 68 -15.8 3.5
11:45 1026 30.3 856 25.28 -10.2 13.6 65 -15.7 3.8
11:50 1027 30.33 856 25.28 -9.9 14.1 64 -15.4 4.2
11:55 1027 30.33 856 25.28 -9.8 14.4 62 -15.7 3.7
12:00 1027 30.33 856 25.28 -9.7 14.5 63 -15.4 4.2
12:05 1027 30.33 856 25.28 -9.4 15.1 62 -15.5 4.1
12:10 1027 30.33 856 25.28 -9.8 14.4 62 -15.8 3.6
12:15 1027 30.33 856 25.28 -9.7 14.6 60 -16 3.2
12:20 1027 30.33 856 25.28 -9.2 15.4 59 -15.8 3.6
12:25 1027 30.33 856 25.28 -8.2 17.2 56 -15.4 4.2
12:30 1027 30.33 856 25.28 -8.6 16.6 58 -15.4 4.2
12:35 1027 30.33 856 25.28 -9.2 15.4 60 -15.7 3.7
12:40 1027 30.33 856 25.28 -9.4 15.1 61 -15.6 3.9
12:45 1027 30.33 856 25.28 -9.9 14.2 62 -15.9 3.4
12:50 1027 30.33 856 25.28 -10.2 13.7 64 -15.8 3.6
12:55 1027 30.33 856 25.28 -9.4 15.2 61 -15.6 4
13:00 1027 30.33 856 25.28 -8.9 16 59 -15.4 4.2
13:05 1026 30.3 856 25.28 -8.5 16.7 58 -15.4 4.2
13:10 1026 30.3 856 25.28 -8.2 17.2 59 -14.9 5.1
13:15 1026 30.3 856 25.28 -7.7 18.1 55 -15.2 4.6
13:20 1026 30.3 855 25.25 -7.6 18.4 54 -15.2 4.6
13:25 1026 30.3 855 25.25 -8.1 17.5 59 -14.8 5.4
13:30 1026 30.3 855 25.25 -8.5 16.8 57 -15.5 4.2
13:35 1026 30.3 855 25.25 -8 17.7 55 -15.5 4.1
13:40 1026 30.3 855 25.25 -7.4 18.7 55 -14.9 5.2
13:45 1026 30.3 855 25.25 -7.4 18.6 53 -15.4 4.3
13:50 1026 30.3 855 25.25 -7.4 18.7 53 -15.5 4.1
13:55 1026 30.3 855 25.25 -7.7 18.1 52 -16 3.2
14:00 1026 30.3 855 25.25 -8 17.7 52 -16.2 2.9
14:05 1026 30.3 855 25.25 -7.8 18 52 -16 3.3
14:10 1025 30.27 855 25.25 -8.2 17.3 53 -16.1 3.1
14:15 1025 30.27 855 25.25 -8.6 16.5 55 -16.2 2.9
14:20 1026 30.3 855 25.25 -7.9 17.8 51 -16.4 2.4
14:25 1026 30.3 855 25.25 -7.6 18.3 51 -16.1 2.9
14:30 1026 30.3 855 25.25 -7.3 18.9 49 -16.3 2.6
14:35 1026 30.3 855 25.25 -7 19.4 50 -15.7 3.8
14:40 1026 30.3 855 25.25 -6.7 19.9 46 -16.4 2.4
14:45 1026 30.3 855 25.25 -7.3 19 49 -16.3 2.6
14:50 1026 30.3 855 25.25 -7.4 18.6 49 -16.5 2.3
14:55 1026 30.3 855 25.25 -7.2 19.1 49 -16.1 3
15:00 1026 30.3 855 25.25 -7.2 19.1 48 -16.3 2.6
15:05 1026 30.3 855 25.25 -7.4 18.7 49 -16.5 2.4
15:10 1026 30.3 855 25.25 -7.8 17.9 51 -16.3 2.7
15:15 1026 30.3 855 25.25 -8.6 16.6 53 -16.5 2.3
15:20 1026 30.3 855 25.25 -8.4 16.9 53 -16.4 2.5
15:25 1026 30.3 855 25.25 -8.9 16.1 55 -16.4 2.5
15:30 1026 30.3 855 25.25 -8.7 16.4 54 -16.5 2.3
15:35 1026 30.3 855 25.25 -8.2 17.3 51 -16.6 2
15:40 1026 30.3 855 25.25 -7.8 17.9 50 -16.6 2.1
15:45 1026 30.3 855 25.25 -8.1 17.4 49 -17.1 1.3
15:50 1026 30.3 855 25.25 -8.1 17.5 51 -16.6 2.1
15:55 1026 30.3 855 25.25 -8.5 16.7 52 -16.7 1.9
16:00 1026 30.3 855 25.25 -8.5 16.7 51 -16.8 1.7
16:05 1026 30.3 855 25.25 -8.2 17.3 49 -17 1.4
16:10 1025 30.27 855 25.25 -7.9 17.9 48 -17.2 1.1
16:15 1025 30.27 855 25.25 -8.3 17.1 49 -17.3 0.8
16:20 1025 30.27 855 25.25 -8.5 16.7 54 -16.3 2.7
16:25 1025 30.27 855 25.25 -8.3 17.2 52 -16.5 2.3
16:30 1025 30.27 854 25.22 -8.4 16.8 49 -17.3 0.8
16:35 1025 30.27 855 25.25 -8.5 16.8 50 -17.2 1
16:40 1025 30.27 855 25.25 -8.1 17.4 50 -16.9 1.6
16:45 1025 30.27 855 25.25 -8.3 17.2 50 -16.8 1.7
16:50 1025 30.27 855 25.25 -8.3 17.1 52 -16.4 2.5
16:55 1025 30.27 855 25.25 -9.2 15.4 53 -17.2 1
17:00 1025 30.27 855 25.25 -9 15.8 48 -18.1 -0.7
17:05 1025 30.27 855 25.25 -8.8 16.2 50 -17.5 0.4
17:10 1025 30.27 855 25.25 -8.3 17 48 -17.6 0.3
17:15 1026 30.3 855 25.25 -8 17.5 48 -17.2 1.1
17:20 1026 30.3 855 25.25 -8.9 16 50 -17.6 0.4
17:25 1026 30.3 855 25.25 -8.5 16.6 48 -17.7 0.2
17:30 1025 30.27 855 25.25 -8.6 16.5 49 -17.6 0.4
17:35 1025 30.27 855 25.25 -8.6 16.5 48 -17.8 0
17:40 1025 30.27 854 25.22 -8.7 16.3 50 -17.4 0.7
17:45 1025 30.27 854 25.22 -9 15.9 50 -17.5 0.6
17:50 1025 30.27 854 25.22 -8.7 16.4 48 -17.8 -0.1
17:55 1025 30.27 854 25.22 -8.2 17.2 47 -17.7 0.2
18:00 1025 30.27 854 25.22 -8.9 16 50 -17.6 0.3
18:05 1025 30.27 854 25.22 -9.1 15.6 49 -17.9 -0.2
18:10 1025 30.27 854 25.22 -9.2 15.5 51 -17.6 0.4
18:15 1024 30.24 854 25.22 -9.4 15.1 50 -17.9 -0.3
18:20 1024 30.24 854 25.22 -9.4 15.1 50 -17.9 -0.2
18:25 1024 30.24 853 25.19 -9.6 14.7 53 -17.5 0.5
18:30 1024 30.24 853 25.19 -9.7 14.5 52 -17.8 0
18:35 1024 30.24 853 25.19 -10 14 53 -17.8 -0
18:40 1024 30.24 853 25.19 -10.6 13 57 -17.6 0.3
18:45 1024 30.24 853 25.19 -11 12.3 58 -17.6 0.3
18:50 1023 30.21 853 25.19 -11.3 11.8 60 -17.6 0.4
18:55 1023 30.21 853 25.19 -11.4 11.6 61 -17.5 0.6
19:00 1023 30.21 852 25.16 -11.4 11.5 61 -17.4 0.6
19:05 1023 30.21 852 25.16 -11.6 11.2 63 -17.3 0.9
19:10 1023 30.21 852 25.16 -11.6 11.1 64 -17.2 1.1
19:15 1023 30.21 852 25.16 -11.6 11.1 64 -17.1 1.2
19:20 1023 30.21 852 25.16 -11.7 11 65 -17 1.3
19:25 1023 30.21 852 25.16 -11.7 11 66 -16.8 1.7
19:30 1023 30.21 852 25.16 -11.6 11.2 65 -17 1.4
19:35 1023 30.21 852 25.16 -12 10.4 66 -17.1 1.2
19:40 1023 30.21 852 25.16 -12.4 9.7 68 -17.1 1.2
19:45 1023 30.21 852 25.16 -12.6 9.4 69 -17.2 1.1
19:50 1023 30.21 852 25.16 -12.4 9.6 69 -17 1.3
19:55 1023 30.21 852 25.16 -12.4 9.7 69 -17 1.4
20:00 1023 30.21 852 25.16 -12.5 9.5 70 -17 1.4
20:05 1023 30.21 852 25.16 -12.9 8.7 72 -17 1.4
20:10 1023 30.21 852 25.16 -13.4 8 73 -17.2 1
20:15 1023 30.21 852 25.16 -13.7 7.4 74 -17.5 0.6
20:20 1023 30.21 852 25.16 -13.9 6.9 72 -17.9 -0.3
20:25 1023 30.21 852 25.16 -14.2 6.4 73 -18.1 -0.6
20:30 1023 30.21 852 25.16 -14.2 6.4 74 -18 -0.4
20:35 1023 30.21 852 25.16 -14.2 6.4 73 -18.1 -0.6
20:40 1023 30.21 852 25.16 -14.4 6.2 75 -17.9 -0.2
20:45 1023 30.21 852 25.16 -14.1 6.7 75 -17.7 0.2
20:50 1023 30.21 852 25.16 -14 6.8 73 -17.8 -0
20:55 1023 30.21 852 25.16 -14.2 6.5 72 -18.1 -0.6
21:00 1023 30.21 852 25.16 -14.4 6.1 74 -18.1 -0.5
21:05 1023 30.21 852 25.16 -14.5 6 74 -18.2 -0.7
21:10 1023 30.21 852 25.16 -15 5.1 75 -18.5 -1.3
21:15 1023 30.21 852 25.16 -15.6 3.9 79 -18.5 -1.2
21:20 1023 30.21 852 25.16 -15.9 3.5 80 -18.6 -1.4
21:25 1023 30.21 852 25.16 -15.8 3.7 80 -18.4 -1.1
21:30 1022 30.18 852 25.16 -15.7 3.8 81 -18.3 -0.9
21:35 1022 30.18 852 25.16 -15.4 4.3 80 -18.2 -0.7
21:40 1022 30.18 852 25.16 -15.1 4.9 79 -18 -0.3
21:45 1022 30.18 852 25.16 -14.6 5.8 74 -18.2 -0.7
21:50 1022 30.18 852 25.16 -15.3 4.5 76 -18.6 -1.4
21:55 1022 30.18 851 25.13 -16 3.3 79 -18.8 -1.8
22:00 1022 30.18 851 25.13 -16.2 2.8 81 -18.7 -1.7
22:05 1022 30.18 851 25.13 -16.2 2.8 81 -18.8 -1.9
22:10 1022 30.18 851 25.13 -16.3 2.7 79 -19.2 -2.5
22:15 1022 30.18 851 25.13 -16.4 2.4 80 -19.2 -2.5
22:20 1022 30.18 851 25.13 -16.4 2.6 78 -19.4 -2.9
22:25 1022 30.18 851 25.13 -16.7 2 80 -19.4 -3
22:30 1022 30.18 851 25.13 -16.2 2.8 78 -19.1 -2.5
22:35 1022 30.18 851 25.13 -15.9 3.5 76 -19.1 -2.4
22:40 1022 30.18 851 25.13 -15.7 3.7 76 -19 -2.2
22:45 1022 30.18 851 25.13 -16.1 3.1 79 -18.9 -2.1
22:50 1022 30.18 851 25.13 -16.3 2.6 80 -19 -2.3
22:55 1022 30.18 851 25.13 -16.4 2.4 80 -19.2 -2.5
23:00 1022 30.18 851 25.13 -16.6 2.1 80 -19.4 -2.9
23:05 1022 30.18 851 25.13 -16.7 1.9 81 -19.3 -2.7
23:10 1022 30.18 851 25.13 -16.9 1.6 82 -19.3 -2.7
23:15 1022 30.18 851 25.13 -16.7 1.9 81 -19.3 -2.8
23:20 1022 30.18 851 25.13 -16.5 2.2 80 -19.3 -2.7
23:25 1022 30.18 851 25.13 -16.3 2.6 80 -19.1 -2.4
23:30 1022 30.18 851 25.13 -16.4 2.5 81 -18.9 -2.1
23:35 1022 30.18 851 25.13 -16.2 2.9 80 -18.9 -2
23:40 1022 30.18 851 25.13 -16.4 2.6 81 -19 -2.1
23:45 1022 30.18 851 25.13 -16.6 2.1 82 -19 -2.2
23:50 1022 30.18 851 25.13 -16.7 2 79 -19.5 -3.1
23:55 1022 30.18 851 25.13 -17 1.5 81 -19.4 -3
24:00 1022 30.18 851 25.13 -17.1 1.2 83 -19.3 -2.8